Time;durP1;ratioP1;P1;durP2;ratioP2;P2;SDS_P1;SDS_P2;PMS_P1;PMS_P2;Temp;Humidity;BMP_temperature;BMP_pressure;BME280_temperature;BME280_humidity;BME280_pressure;Samples;Min_cycle;Max_cycle;Signal;HPM_P1;HPM_P2
2021/11/01 00:01:03;;;;;;;4.00;3.30;;;;;;;8.19;58.04;95936.55;1811685;78;21403;-81
2021/11/01 00:03:29;;;;;;;4.28;3.58;;;;;;;8.16;57.96;95933.52;1796919;78;21062;-80
2021/11/01 00:05:55;;;;;;;4.15;3.52;;;;;;;8.10;57.78;95935.81;1822469;77;21062;-81
2021/11/01 00:08:21;;;;;;;3.85;2.90;;;;;;;8.11;56.85;95935.32;1775107;79;21047;-81
2021/11/01 00:10:47;;;;;;;3.98;3.55;;;;;;;8.33;57.28;95927.19;1778598;77;21438;-81
2021/11/01 00:13:13;;;;;;;4.45;3.62;;;;;;;8.45;57.31;95930.14;1800453;78;21008;-81
2021/11/01 00:15:39;;;;;;;3.58;3.02;;;;;;;8.38;57.27;95917.13;1832259;77;21018;-81
2021/11/01 00:18:05;;;;;;;4.22;3.00;;;;;;;8.27;57.62;95917.04;1816096;77;21102;-81
2021/11/01 00:20:31;;;;;;;3.75;2.87;;;;;;;8.18;57.55;95914.24;1799559;78;21071;-81
2021/11/01 00:22:57;;;;;;;4.70;3.10;;;;;;;8.15;57.47;95913.31;1810490;78;21061;-80
2021/11/01 00:25:23;;;;;;;3.52;3.08;;;;;;;8.17;57.53;95900.19;1824507;76;21051;-81
2021/11/01 00:27:49;;;;;;;3.72;3.05;;;;;;;8.15;57.82;95913.80;1836146;77;21029;-81
2021/11/01 00:30:15;;;;;;;3.87;3.50;;;;;;;8.13;57.31;95897.12;1797043;77;21428;-81
2021/11/01 00:35:07;;;;;;;4.33;3.22;;;;;;;8.20;57.56;95898.04;1789074;78;21124;-81
2021/11/01 00:37:33;;;;;;;4.20;3.70;;;;;;;8.20;57.76;95886.39;1795779;78;21054;-81
2021/11/01 00:40:00;;;;;;;3.85;3.30;;;;;;;8.16;57.82;95894.21;1769617;80;21087;-80
2021/11/01 00:42:27;;;;;;;4.22;3.40;;;;;;;8.12;57.52;95883.88;1776676;79;21147;-81
2021/11/01 00:44:52;;;;;;;4.37;3.40;;;;;;;8.08;57.81;95878.75;1769089;79;21130;-81
2021/11/01 00:47:18;;;;;;;5.47;3.20;;;;;;;8.02;57.94;95880.28;1770467;79;21426;-81
2021/11/01 00:49:44;;;;;;;4.50;3.15;;;;;;;7.99;58.03;95882.42;1816128;77;21115;-81
2021/11/01 00:52:10;;;;;;;4.58;3.72;;;;;;;7.98;58.51;95882.12;1780134;77;21140;-80
2021/11/01 00:54:36;;;;;;;4.35;3.20;;;;;;;7.94;58.39;95886.02;1760447;79;21112;-81
2021/11/01 00:57:03;;;;;;;4.42;3.92;;;;;;;7.90;58.54;95879.59;1795026;79;22189;-81
2021/11/01 00:59:29;;;;;;;6.00;3.65;;;;;;;7.88;58.04;95875.89;1766333;79;21028;-81
2021/11/01 01:01:55;;;;;;;4.08;3.02;;;;;;;7.98;57.90;95879.03;1761342;77;21072;-81
2021/11/01 01:04:24;;;;;;;4.92;3.85;;;;;;;8.08;58.22;95880.05;1764296;77;21145;-81
2021/11/01 01:06:49;;;;;;;5.22;3.80;;;;;;;8.12;58.56;95880.00;1775116;79;21015;-80
2021/11/01 01:09:14;;;;;;;4.62;3.35;;;;;;;8.16;58.10;95877.87;1820648;75;21051;-80
2021/11/01 01:11:40;;;;;;;5.33;3.85;;;;;;;8.25;58.21;95872.91;1821357;78;21098;-81
2021/11/01 01:14:06;;;;;;;4.83;3.60;;;;;;;8.25;58.12;95879.38;1846520;76;21163;-81
2021/11/01 01:16:39;;;;;;;4.70;3.98;;;;;;;8.23;57.87;95877.47;1800646;78;21503;-81
2021/11/01 01:19:02;;;;;;;5.15;3.50;;;;;;;8.39;57.56;95865.66;1789934;78;21166;-81
2021/11/01 01:24:12;;;;;;;5.25;3.35;;;;;;;8.64;57.32;95873.94;1727244;80;21376;-81
2021/11/01 01:26:38;;;;;;;7.70;3.80;;;;;;;8.81;57.14;95875.33;1744135;80;21064;-81
2021/11/01 01:29:05;;;;;;;4.78;3.55;;;;;;;9.14;56.66;95866.59;1735313;80;21555;-81
2021/11/01 01:31:31;;;;;;;4.62;3.52;;;;;;;9.42;55.91;95853.66;1759351;80;21080;-81
2021/11/01 01:33:58;;;;;;;4.67;3.37;;;;;;;9.66;54.47;95843.39;1753124;80;21084;-81
2021/11/01 01:36:24;;;;;;;5.35;3.10;;;;;;;9.88;54.75;95848.02;1758082;80;21181;-81
2021/11/01 01:38:50;;;;;;;5.10;4.22;;;;;;;9.97;54.28;95837.80;1751946;80;21151;-81
2021/11/01 01:41:23;;;;;;;6.00;4.30;;;;;;;9.98;54.97;95852.38;1748082;80;21111;-81
2021/11/01 01:43:53;;;;;;;4.20;3.55;;;;;;;10.01;54.25;95842.91;1761757;80;21067;-81
2021/11/01 01:46:21;;;;;;;5.90;4.10;;;;;;;10.07;54.35;95834.34;1750510;81;21095;-81
2021/11/01 01:48:47;;;;;;;5.10;3.70;;;;;;;10.03;54.31;95840.13;1751795;80;21087;-81
2021/11/01 01:51:13;;;;;;;5.97;4.05;;;;;;;10.04;53.67;95835.23;1752566;81;21063;-82
2021/11/01 01:53:40;;;;;;;5.15;4.12;;;;;;;10.19;53.51;95834.62;1735161;80;21141;-81
2021/11/01 01:58:41;;;;;;;3.98;3.58;;;;;;;10.46;52.70;95829.89;1760336;80;21063;-81
2021/11/01 02:03:36;;;;;;;4.87;3.98;;;;;;;10.64;52.08;95829.84;1778559;79;21442;-81
2021/11/01 02:06:10;;;;;;;3.87;3.47;;;;;;;10.68;52.20;95834.95;1749294;79;21139;-81
2021/11/01 02:08:48;;;;;;;4.05;3.20;;;;;;;10.69;51.08;95827.45;1774787;79;21121;-81
2021/11/01 02:11:17;;;;;;;5.92;3.90;;;;;;;10.78;51.16;95823.19;1720056;81;21064;-81
2021/11/01 02:13:46;;;;;;;5.97;3.98;;;;;;;10.89;51.27;95815.30;1764376;78;21032;-81
2021/11/01 02:18:37;;;;;;;4.12;3.65;;;;;;;11.02;51.36;95809.33;1797332;78;21067;-81
2021/11/01 02:23:50;;;;;;;5.53;4.05;;;;;;;10.96;50.86;95797.14;1772231;79;21149;-81
2021/11/01 02:26:17;;;;;;;5.58;3.98;;;;;;;10.96;50.45;95803.63;1766918;79;21383;-81
2021/11/01 02:28:45;;;;;;;6.45;4.20;;;;;;;11.05;50.61;95799.83;1757959;79;21098;-81
2021/11/01 02:31:13;;;;;;;5.55;3.90;;;;;;;11.12;50.18;95794.16;1770847;78;21478;-81
2021/11/01 02:33:39;;;;;;;4.20;3.80;;;;;;;11.22;49.94;95791.94;1745356;80;21207;-81
2021/11/01 02:36:05;;;;;;;5.25;4.30;;;;;;;11.27;50.20;95792.66;1766830;79;21468;-81
2021/11/01 02:38:31;;;;;;;5.47;4.10;;;;;;;11.20;50.13;95797.84;1740727;79;21090;-81
2021/11/01 02:40:58;;;;;;;6.22;4.28;;;;;;;11.11;49.85;95783.45;1747447;80;21092;-81
2021/11/01 02:43:27;;;;;;;5.55;4.00;;;;;;;11.08;49.98;95779.45;1712476;81;21041;-81
2021/11/01 02:45:55;;;;;;;4.70;4.10;;;;;;;11.12;50.26;95791.55;1739241;80;21123;-81
2021/11/01 02:48:20;;;;;;;4.62;3.45;;;;;;;11.13;50.18;95769.25;1760403;79;21074;-81
2021/11/01 02:50:46;;;;;;;4.20;3.80;;;;;;;11.07;50.19;95783.56;1740701;81;21054;-81
2021/11/01 02:53:12;;;;;;;5.08;4.00;;;;;;;11.10;50.23;95783.95;1751902;81;21451;-81
2021/11/01 02:55:38;;;;;;;4.25;3.47;;;;;;;11.11;50.17;95770.45;1722571;81;21064;-81
2021/11/01 02:58:04;;;;;;;4.65;4.17;;;;;;;11.11;50.20;95763.45;1744397;80;21125;-82
2021/11/01 03:00:31;;;;;;;4.53;3.52;;;;;;;11.08;50.46;95785.95;1769616;80;21090;-81
2021/11/01 03:02:57;;;;;;;4.37;3.80;;;;;;;10.93;50.38;95776.24;1774420;79;21110;-81
2021/11/01 03:05:24;;;;;;;6.53;3.98;;;;;;;10.98;50.11;95773.04;1775096;78;21035;-81
2021/11/01 03:07:53;;;;;;;4.33;3.92;;;;;;;11.04;50.21;95787.33;1742374;80;21020;-81
2021/11/01 03:10:19;;;;;;;4.47;3.87;;;;;;;11.08;50.61;95787.76;1772917;79;21098;-81
2021/11/01 03:12:47;;;;;;;5.87;3.42;;;;;;;11.04;50.28;95776.94;1781094;79;21139;-81
2021/11/01 03:15:27;;;;;;;4.87;4.37;;;;;;;11.05;50.25;95764.73;1767131;79;21150;-81
2021/11/01 03:18:00;;;;;;;5.20;3.40;;;;;;;11.03;50.16;95764.94;1747371;80;21529;-81
2021/11/01 03:20:33;;;;;;;4.60;3.90;;;;;;;11.02;50.62;95763.34;1749619;79;21082;-81
2021/11/01 03:23:09;;;;;;;5.70;4.08;;;;;;;10.96;50.44;95760.74;1727892;80;21019;-81
2021/11/01 03:25:44;;;;;;;4.75;3.80;;;;;;;10.97;50.48;95752.74;1751940;79;21000;-82
2021/11/01 03:28:11;;;;;;;4.67;4.22;;;;;;;11.03;49.89;95748.54;1779972;79;21072;-81
2021/11/01 03:30:36;;;;;;;6.00;4.42;;;;;;;11.10;50.26;95730.66;1768281;79;21031;-82
2021/11/01 03:33:02;;;;;;;5.28;3.80;;;;;;;11.14;49.91;95710.25;1770768;79;21493;-81
2021/11/01 03:35:28;;;;;;;5.97;4.58;;;;;;;11.22;49.19;95686.63;1791977;77;21007;-81
2021/11/01 03:37:56;;;;;;;4.85;3.62;;;;;;;11.31;49.20;95685.42;1759743;79;21054;-81
2021/11/01 03:40:22;;;;;;;5.22;3.98;;;;;;;11.40;48.97;95680.31;1769369;78;21122;-82
2021/11/01 03:42:52;;;;;;;5.72;4.15;;;;;;;11.47;48.04;95672.98;1791353;78;21067;-81
2021/11/01 03:45:17;;;;;;;4.08;3.40;;;;;;;11.57;48.55;95674.16;1787406;77;21036;-81
2021/11/01 03:47:46;;;;;;;4.35;3.50;;;;;;;11.60;48.17;95688.06;1793920;77;21026;-82
2021/11/01 03:50:29;;;;;;;4.70;3.62;;;;;;;11.65;47.20;95684.34;1831319;77;21087;-81
2021/11/01 03:52:49;;;;;;;4.33;3.92;;;;;;;11.76;47.62;95691.22;1817600;78;21049;-81
2021/11/01 03:55:15;;;;;;;4.65;3.70;;;;;;;11.81;47.19;95683.11;1832804;75;21074;-81
2021/11/01 04:00:08;;;;;;;4.15;3.60;;;;;;;11.84;46.72;95689.20;1818912;77;21560;-81
2021/11/01 04:02:34;;;;;;;4.50;3.27;;;;;;;11.85;46.96;95699.91;1791235;77;21051;-82
2021/11/01 04:05:01;;;;;;;4.70;3.60;;;;;;;11.86;45.88;95685.89;1785763;79;21082;-81
2021/11/01 04:07:27;;;;;;;5.03;3.50;;;;;;;11.90;46.55;95658.96;1809495;78;21102;-81
2021/11/01 04:09:54;;;;;;;3.83;3.45;;;;;;;11.87;46.50;95674.47;1771956;77;21059;-81
2021/11/01 04:12:20;;;;;;;5.15;3.83;;;;;;;11.87;46.01;95669.27;1793748;77;21121;-81
2021/11/01 04:17:22;;;;;;;6.40;4.05;;;;;;;11.81;46.92;95685.72;1753399;77;21074;-81
2021/11/01 04:22:13;;;;;;;5.15;4.12;;;;;;;11.75;46.72;95676.61;1832301;76;21158;-81
2021/11/01 04:24:39;;;;;;;4.28;3.72;;;;;;;11.79;46.82;95671.31;1784338;79;21146;-81
2021/11/01 04:27:05;;;;;;;6.33;4.25;;;;;;;11.80;46.71;95651.58;1816141;78;21046;-81
2021/11/01 04:29:33;;;;;;;5.53;3.60;;;;;;;11.82;46.53;95675.59;1826121;78;21047;-81
2021/11/01 04:32:12;;;;;;;5.50;3.90;;;;;;;11.86;46.70;95660.36;1825063;78;21066;-82
2021/11/01 04:34:32;;;;;;;5.15;4.12;;;;;;;11.88;46.38;95657.88;1799533;77;21441;-82
2021/11/01 04:36:56;;;;;;;5.47;3.95;;;;;;;11.86;46.78;95663.76;1795601;78;21059;-81
2021/11/01 04:52:58;;;;;;;5.35;3.90;;;;;;;11.83;46.98;95656.87;1799676;77;21119;-82
2021/11/01 04:55:23;;;;;;;4.05;3.47;;;;;;;11.86;46.80;95607.80;1768474;78;21150;-82
2021/11/01 04:57:49;;;;;;;5.05;3.77;;;;;;;11.90;46.94;95601.70;1779328;78;21055;-82
2021/11/01 05:00:16;;;;;;;5.85;4.20;;;;;;;11.87;46.99;95631.52;1790900;78;21379;-82
2021/11/01 05:02:47;;;;;;;7.22;4.30;;;;;;;11.87;46.85;95625.52;1816261;77;21516;-81
2021/11/01 05:05:10;;;;;;;5.30;4.33;;;;;;;11.88;46.89;95630.54;1796590;78;21115;-81
2021/11/01 05:07:37;;;;;;;5.08;4.58;;;;;;;11.88;46.79;95635.75;1771630;80;21601;-81
2021/11/01 05:10:13;;;;;;;4.85;3.80;;;;;;;11.90;46.71;95641.54;1784987;79;21133;-81
2021/11/01 05:12:36;;;;;;;5.90;3.40;;;;;;;11.90;46.61;95629.03;1801242;78;21078;-81
2021/11/01 05:17:39;;;;;;;6.12;3.98;;;;;;;11.90;46.67;95611.60;1806585;77;21027;-82
2021/11/01 05:25:10;;;;;;;5.20;4.10;;;;;;;11.91;46.54;95595.48;1785057;78;21075;-82
2021/11/01 05:30:10;;;;;;;6.22;3.87;;;;;;;11.94;46.14;95606.77;1786836;78;21163;-82
2021/11/01 05:32:34;;;;;;;6.00;3.98;;;;;;;11.98;46.21;95604.84;1811923;77;21074;-82
2021/11/01 05:35:00;;;;;;;5.50;4.08;;;;;;;11.99;45.97;95618.14;1776977;79;21024;-82
2021/11/01 05:37:26;;;;;;;5.30;4.65;;;;;;;11.97;45.97;95607.66;1789660;78;21129;-82
2021/11/01 05:39:52;;;;;;;5.72;4.08;;;;;;;11.97;46.01;95596.73;1810166;76;21233;-82
2021/11/01 05:42:18;;;;;;;3.87;3.47;;;;;;;11.97;46.14;95609.75;1823252;76;21152;-81
2021/11/01 05:44:44;;;;;;;4.50;4.10;;;;;;;11.95;45.74;95574.02;1815896;76;21115;-82
2021/11/01 05:47:11;;;;;;;7.33;4.53;;;;;;;11.97;46.02;95610.25;1834089;76;21172;-82
2021/11/01 05:49:38;;;;;;;4.70;3.90;;;;;;;11.97;46.05;95625.37;1814218;77;21200;-81
2021/11/01 05:52:11;;;;;;;5.97;4.45;;;;;;;11.97;46.00;95621.47;1808727;78;21451;-82
2021/11/01 05:54:34;;;;;;;4.08;3.65;;;;;;;11.98;45.88;95627.47;1835930;77;22684;-82
2021/11/01 06:14:46;;;;;;;8.13;5.90;;;;;;;11.92;45.95;95662.95;1839189;76;21086;-82
2021/11/01 06:17:14;;;;;;;6.45;5.33;;;;;;;11.91;46.41;95676.17;1741725;78;21573;-82
2021/11/01 06:19:40;;;;;;;8.55;5.92;;;;;;;11.90;46.34;95657.66;1780317;78;21094;-82
2021/11/01 06:22:06;;;;;;;36.90;25.90;;;;;;;11.87;46.61;95684.88;1808358;78;21523;-82
2021/11/01 06:27:10;;;;;;;8.10;4.45;;;;;;;11.78;46.78;95672.29;1840317;77;21514;-82
2021/11/01 07:02:04;;;;;;;7.45;4.97;;;;;;;11.69;46.74;95670.41;1803219;78;21451;-82
2021/11/01 07:14:07;;;;;;;6.00;4.05;;;;;;;11.71;47.58;95671.83;1785430;78;21063;-82
2021/11/01 07:15:12;;;;;;;7.75;4.78;;;;;;;11.50;47.69;95673.88;1772135;80;21059;-81
2021/11/01 07:17:38;;;;;;;6.20;4.12;;;;;;;11.48;47.70;95665.48;1780923;78;21006;-82
2021/11/01 07:20:15;;;;;;;7.28;4.40;;;;;;;11.49;47.94;95672.27;1767274;78;21451;-82
2021/11/01 08:29:06;;;;;;;4.20;3.58;;;;;;;12.92;46.18;95650.08;1728779;80;21071;-82
2021/11/01 08:39:35;;;;;;;7.03;4.60;;;;;;;13.20;45.79;95640.02;1781888;78;21039;-82
2021/11/01 08:47:37;;;;;;;6.58;4.75;;;;;;;13.38;45.00;95645.77;1760630;80;21522;-82
2021/11/01 08:50:18;;;;;;;4.92;4.42;;;;;;;13.46;45.47;95651.19;1759636;79;21023;-82
2021/11/01 09:26:21;;;;;;;;;;;;;;;14.24;43.93;95649.15;1752820;81;21525;-82
2021/11/01 09:36:53;;;;;;;6.87;3.90;;;;;;;14.44;43.99;95641.84;1773965;79;21151;-82
2021/11/01 09:41:40;;;;;;;5.17;4.62;;;;;;;14.59;43.73;95632.28;1782524;77;21110;-82
2021/11/01 09:44:10;;;;;;;4.30;3.90;;;;;;;14.65;43.65;95633.50;1733835;80;21474;-82
2021/11/01 09:46:33;;;;;;;4.72;4.08;;;;;;;14.71;42.97;95622.64;1757077;80;21018;-82
2021/11/01 09:49:14;;;;;;;5.00;4.50;;;;;;;14.77;43.61;95623.04;1756930;80;21166;-82
2021/11/01 09:51:27;;;;;;;5.37;4.50;;;;;;;14.81;43.40;95612.95;1775243;79;21076;-82
2021/11/01 09:53:55;;;;;;;5.10;4.20;;;;;;;14.86;43.56;95616.47;1731777;81;21074;-82
2021/11/01 10:01:35;;;;;;;5.12;4.53;;;;;;;15.00;43.65;95611.81;1735058;79;21068;-82
2021/11/01 10:04:02;;;;;;;5.60;4.53;;;;;;;15.07;43.63;95615.61;1789307;78;21489;-82
2021/11/01 10:06:29;;;;;;;;;;;;;;;;;;;;;
2021/11/01 10:08:58;;;;;;;4.67;4.10;;;;;;;15.14;43.56;95613.69;1822621;77;21649;-82
2021/11/01 10:11:28;;;;;;;5.60;4.30;;;;;;;15.17;43.45;95602.76;1812738;78;21453;-82
2021/11/01 10:14:00;;;;;;;7.17;4.62;;;;;;;15.24;43.79;95599.50;1769151;80;21070;-82
2021/11/01 10:18:58;;;;;;;4.75;4.28;;;;;;;15.29;43.77;95601.73;1780883;80;22092;-82
2021/11/01 10:21:24;;;;;;;4.72;4.25;;;;;;;15.37;43.78;95598.45;1796386;79;21049;-82
2021/11/01 10:23:52;;;;;;;4.80;3.92;;;;;;;15.38;43.82;95589.06;1792458;79;21014;-82
2021/11/01 10:26:24;;;;;;;5.10;4.53;;;;;;;15.42;43.95;95590.19;1790341;79;21414;-82
2021/11/01 10:28:52;;;;;;;19.92;11.97;;;;;;;15.43;44.01;95599.63;1757925;80;21078;-82
2021/11/01 10:31:24;;;;;;;9.60;6.42;;;;;;;15.48;44.19;95593.73;1779373;79;21538;-82
2021/11/01 10:33:53;;;;;;;6.83;5.25;;;;;;;15.51;43.84;95587.50;1782176;79;21037;-82
2021/11/01 10:36:28;;;;;;;5.10;4.55;;;;;;;15.57;44.46;95589.70;1779379;78;21067;-82
2021/11/01 10:38:57;;;;;;;9.85;7.30;;;;;;;15.62;44.25;95585.92;1739824;80;21066;-82
2021/11/01 10:41:41;;;;;;;13.08;8.60;;;;;;;15.65;44.56;95590.69;1742499;80;21134;-82
2021/11/01 11:13:29;;;;;;;5.30;4.00;;;;;;;16.07;46.49;95574.17;1805032;76;21066;-82
2021/11/01 11:15:56;;;;;;;3.60;3.27;;;;;;;16.08;46.38;95581.00;1758866;79;21486;-83
2021/11/01 11:26:30;;;;;;;4.45;3.90;;;;;;;16.25;46.40;95552.19;1755384;80;21552;-82
2021/11/01 11:33:56;;;;;;;4.45;3.72;;;;;;;16.24;45.79;95558.98;1753459;80;21090;-82
2021/11/01 11:47:26;;;;;;;5.08;3.62;;;;;;;16.34;46.37;95548.16;1812717;76;21054;-82
2021/11/01 11:49:54;;;;;;;4.80;3.17;;;;;;;16.32;45.57;95542.88;1775776;77;21378;-83
2021/11/01 11:52:23;;;;;;;6.05;4.60;;;;;;;16.32;45.62;95529.26;1801434;77;21095;-83
2021/11/01 11:54:57;;;;;;;3.55;3.15;;;;;;;16.36;45.57;95542.67;1834778;78;21140;-83
2021/11/01 11:57:25;;;;;;;6.05;3.92;;;;;;;16.40;45.69;95535.41;1774922;78;21102;-83
2021/11/01 11:59:54;;;;;;;6.50;4.55;;;;;;;16.45;45.66;95525.02;1744155;79;21020;-83
2021/11/01 12:02:38;;;;;;;3.75;3.35;;;;;;;16.46;45.78;95531.05;1786117;79;21055;-83
2021/11/01 12:07:52;;;;;;;5.08;4.00;;;;;;;16.48;45.30;95519.28;1833353;76;21091;-82
2021/11/01 12:10:48;;;;;;;3.67;3.37;;;;;;;16.47;45.28;95522.15;1757717;80;21099;-83
2021/11/01 12:12:58;;;;;;;4.35;3.95;;;;;;;16.48;45.46;95530.29;1784968;78;21067;-83
2021/11/01 12:17:59;;;;;;;4.20;3.80;;;;;;;16.45;45.47;95528.16;1758713;79;21028;-83
2021/11/01 12:20:26;;;;;;;5.12;4.20;;;;;;;16.43;45.33;95518.39;1726761;81;21146;-83
2021/11/01 12:23:02;;;;;;;5.12;4.17;;;;;;;16.42;45.71;95522.05;1739790;79;21040;-83
2021/11/01 12:25:27;;;;;;;4.30;3.75;;;;;;;16.40;45.40;95517.56;1756640;79;21497;-83
2021/11/01 12:28:02;;;;;;;8.63;5.55;;;;;;;16.45;45.93;95520.29;1764289;80;21504;-83
2021/11/01 12:30:42;;;;;;;3.95;3.55;;;;;;;16.44;45.48;95512.14;1782293;78;21029;-83
2021/11/01 12:33:05;;;;;;;5.22;3.47;;;;;;;16.44;45.53;95510.83;1804221;76;21048;-82
2021/11/01 12:35:32;;;;;;;5.12;4.62;;;;;;;16.47;45.75;95516.91;1787643;77;21425;-82
2021/11/01 12:38:07;;;;;;;4.05;3.65;;;;;;;16.47;45.68;95516.91;1793018;77;21007;-83
2021/11/01 12:57:09;;;;;;;4.42;3.62;;;;;;;16.56;45.73;95514.14;1826401;75;21102;-83
2021/11/01 12:59:49;;;;;;;4.75;3.72;;;;;;;16.58;46.03;95504.20;1748973;80;21477;-83
2021/11/01 13:02:24;;;;;;;4.28;3.40;;;;;;;16.60;45.79;95506.09;1743708;80;21071;-83
2021/11/01 13:04:50;;;;;;;3.60;3.30;;;;;;;16.61;45.96;95504.27;1766210;79;21132;-83
2021/11/01 13:09:55;;;;;;;4.08;3.25;;;;;;;16.59;45.65;95496.61;1779041;79;21532;-83
2021/11/01 13:15:09;;;;;;;4.55;3.62;;;;;;;16.61;45.39;95504.27;1767434;79;21436;-83
2021/11/01 13:19:54;;;;;;;4.85;3.77;;;;;;;16.60;45.75;95498.23;1745566;81;21071;-83
2021/11/01 13:22:26;;;;;;;4.87;3.40;;;;;;;16.56;45.48;95504.17;1771750;79;21102;-83
2021/11/01 13:25:03;;;;;;;4.45;3.72;;;;;;;16.52;45.74;95498.62;1767799;79;21038;-83
2021/11/01 13:35:14;;;;;;;4.08;3.62;;;;;;;16.41;45.38;95506.84;1811711;77;21083;-83
2021/11/01 13:40:04;;;;;;;3.92;3.52;;;;;;;16.33;45.92;95502.01;1823948;76;21154;-83
2021/11/01 13:42:30;;;;;;;4.60;3.52;;;;;;;16.30;45.84;95500.39;1816225;77;21425;-83
2021/11/01 13:45:15;;;;;;;4.60;3.90;;;;;;;16.27;46.41;95505.59;1813920;78;21120;-83
2021/11/01 13:47:52;;;;;;;4.08;3.67;;;;;;;16.23;46.25;95499.22;1798896;77;21090;-83
2021/11/01 13:50:30;;;;;;;4.22;3.58;;;;;;;16.15;46.14;95492.56;1777183;79;22545;-82
2021/11/01 13:53:12;;;;;;;4.22;3.67;;;;;;;16.12;46.22;95491.73;1770327;79;21110;-83
2021/11/01 13:58:08;;;;;;;4.47;3.67;;;;;;;16.02;46.71;95496.79;1782450;78;21045;-83
2021/11/01 14:13:55;;;;;;;4.80;4.20;;;;;;;15.68;47.73;95510.34;1761693;79;21185;-83
2021/11/01 14:16:19;;;;;;;5.95;4.70;;;;;;;15.59;48.05;95511.73;1781720;78;21084;-83
2021/11/01 14:29:43;;;;;;;4.70;4.20;;;;;;;15.09;49.23;95520.16;1811925;77;21496;-83
2021/11/01 15:18:58;;;;;;;4.70;3.87;;;;;;;13.97;52.45;95478.41;1792859;78;21156;-83
2021/11/01 15:39:41;;;;;;;4.15;3.75;;;;;;;12.69;54.56;95478.66;1758836;80;21140;-82
2021/11/01 16:19:14;;;;;;;;;;;;;;;10.90;58.53;95485.55;1789546;77;21067;-82
2021/11/01 16:21:40;;;;;;;5.58;4.33;;;;;;;10.80;58.59;95487.27;1776963;78;20134;-82
2021/11/01 16:24:08;;;;;;;5.72;5.17;;;;;;;10.74;58.77;95489.39;1759214;79;21158;-82
2021/11/01 16:26:35;;;;;;;5.97;5.03;;;;;;;10.69;58.98;95488.39;1772989;78;21098;-82
2021/11/01 16:29:10;;;;;;;5.70;4.90;;;;;;;10.65;58.93;95488.50;1823758;76;21117;-82
2021/11/01 16:31:44;;;;;;;5.70;5.10;;;;;;;10.61;59.06;95486.82;1789515;78;21066;-82
2021/11/01 16:34:16;;;;;;;5.97;5.37;;;;;;;10.56;59.45;95484.02;1792720;78;21035;-82
2021/11/01 16:39:13;;;;;;;5.50;4.67;;;;;;;10.47;59.70;95491.23;1770263;79;21143;-82
2021/11/01 16:41:41;;;;;;;5.85;5.20;;;;;;;10.43;59.89;95493.16;1738695;80;21155;-82
2021/11/01 16:44:16;;;;;;;6.03;4.92;;;;;;;10.37;59.89;95486.15;1751927;81;21663;-82
2021/11/01 16:46:35;;;;;;;6.90;5.50;;;;;;;10.32;59.97;95495.05;1806140;77;21142;-82
2021/11/01 16:49:00;;;;;;;7.37;5.85;;;;;;;10.27;60.25;95492.27;1753965;80;21517;-82
2021/11/01 16:51:26;;;;;;;7.00;5.92;;;;;;;10.35;60.29;95494.64;1773537;79;21414;-82
2021/11/01 16:53:52;;;;;;;7.22;6.55;;;;;;;10.44;60.53;95492.95;1791934;77;21145;-82
2021/11/01 16:56:37;;;;;;;6.45;5.85;;;;;;;10.51;60.32;95493.72;1790270;78;21130;-82
2021/11/01 16:58:53;;;;;;;11.78;8.98;;;;;;;10.58;60.12;95496.33;1746710;79;21568;-82
2021/11/01 17:01:21;;;;;;;8.48;6.75;;;;;;;10.68;60.22;95496.69;1798724;78;21429;-82
2021/11/01 17:03:47;;;;;;;6.80;6.10;;;;;;;10.77;59.96;95495.98;1787924;77;21044;-82
2021/11/01 17:22:13;;;;;;;5.12;4.65;;;;;;;11.41;59.20;95484.22;1785586;78;21071;-82
2021/11/01 18:37:29;;;;;;;8.60;7.28;;;;;;;12.08;57.52;95457.27;1784776;78;21052;-82
2021/11/01 18:42:31;;;;;;;8.90;7.80;;;;;;;12.11;57.37;95458.14;1785805;77;21059;-82
2021/11/01 18:53:04;;;;;;;11.68;8.20;;;;;;;11.97;57.50;95453.55;1790562;77;21078;-82
2021/11/01 18:55:31;;;;;;;14.30;9.43;;;;;;;11.93;57.31;95456.80;1779448;78;21117;-82
2021/11/01 18:57:57;;;;;;;15.00;9.25;;;;;;;11.90;57.28;95447.61;1826742;77;21037;-82
2021/11/01 19:00:23;;;;;;;15.13;9.50;;;;;;;11.85;57.26;95446.13;1803813;78;21460;-82
2021/11/01 19:02:49;;;;;;;9.00;8.08;;;;;;;11.82;57.41;95448.36;1783249;78;21403;-82
2021/11/01 20:09:29;;;;;;;9.50;7.12;;;;;;;11.51;58.19;95440.83;1741276;79;21039;-82
2021/11/01 20:12:13;;;;;;;8.43;7.08;;;;;;;11.52;58.27;95449.42;1741552;80;21442;-82
2021/11/01 21:24:32;;;;;;;10.35;7.90;;;;;;;11.60;58.52;95440.88;1739396;80;21060;-82
2021/11/01 21:27:02;;;;;;;7.72;6.35;;;;;;;11.34;59.84;95352.11;1808098;75;21413;-82
2021/11/01 21:29:32;;;;;;;9.90;7.58;;;;;;;11.33;59.53;95344.02;1787551;79;21147;-82
2021/11/01 21:31:58;;;;;;;7.20;6.42;;;;;;;11.33;59.78;95334.12;1812544;76;21122;-82
2021/11/01 21:34:33;;;;;;;7.08;6.20;;;;;;;11.30;59.77;95349.64;1798596;77;21426;-82
2021/11/01 21:36:54;;;;;;;7.45;6.67;;;;;;;11.29;59.60;95344.15;1763413;79;21070;-82
2021/11/01 21:39:20;;;;;;;5.78;5.17;;;;;;;11.28;59.72;95339.95;1783491;80;21052;-82
2021/11/01 21:41:46;;;;;;;8.30;6.47;;;;;;;11.27;59.82;95346.17;1792422;79;21078;-82
2021/11/01 21:44:12;;;;;;;6.97;6.28;;;;;;;11.27;59.78;95337.57;1793403;77;21122;-82
2021/11/01 21:46:38;;;;;;;6.12;5.53;;;;;;;11.25;59.79;95342.98;1794633;79;21603;-82
2021/11/01 21:49:04;;;;;;;6.75;6.05;;;;;;;11.25;59.83;95348.19;1771696;79;21119;-82
2021/11/01 21:51:32;;;;;;;6.95;6.00;;;;;;;11.24;59.67;95343.99;1762896;79;21139;-82
2021/11/01 21:56:27;;;;;;;7.33;5.83;;;;;;;11.23;59.89;95335.11;1796028;77;22138;-82
2021/11/01 21:59:07;;;;;;;7.03;6.33;;;;;;;11.21;60.08;95336.59;1788422;77;21127;-82
2021/11/01 22:01:42;;;;;;;8.60;6.37;;;;;;;11.19;59.83;95324.31;1753160;81;21280;-82
2021/11/01 22:40:40;;;;;;;6.80;5.65;;;;;;;11.08;60.27;95280.30;1769052;79;21017;-82
2021/11/01 22:45:42;;;;;;;6.03;5.10;;;;;;;11.07;60.35;95276.12;1793283;76;21059;-82
2021/11/01 22:58:23;;;;;;;7.60;6.62;;;;;;;11.09;60.62;95272.00;1758642;78;21368;-82
2021/11/01 23:01:09;;;;;;;5.95;5.30;;;;;;;11.10;60.76;95254.09;1796975;79;21141;-81
2021/11/01 23:32:36;;;;;;;7.83;7.03;;;;;;;11.21;60.99;95255.19;1798876;77;21114;-82
2021/11/01 23:35:02;;;;;;;8.58;7.17;;;;;;;11.21;60.88;95248.19;1803751;77;21505;-81
2021/11/01 23:37:28;;;;;;;7.05;6.35;;;;;;;11.22;60.88;95248.47;1793200;77;21064;-82
2021/11/01 23:39:54;;;;;;;6.50;5.53;;;;;;;11.24;60.97;95250.39;1793066;78;21052;-82
2021/11/01 23:42:19;;;;;;;8.00;7.20;;;;;;;11.23;61.37;95225.91;1771306;78;21007;-81
2021/11/01 23:44:45;;;;;;;7.35;6.65;;;;;;;11.22;61.17;95256.28;1790455;79;21197;-82
2021/11/01 23:47:11;;;;;;;6.85;6.15;;;;;;;11.23;61.22;95249.30;1780028;79;21099;-82
2021/11/01 23:49:37;;;;;;;6.65;5.30;;;;;;;11.27;60.96;95266.06;1767482;80;21122;-82
2021/11/01 23:52:12;;;;;;;7.72;6.75;;;;;;;11.30;61.17;95241.72;1745812;80;21205;-82
2021/11/01 23:54:43;;;;;;;8.13;7.30;;;;;;;11.33;61.20;95261.30;1768107;79;21098;-82
2021/11/01 23:57:06;;;;;;;7.97;7.10;;;;;;;11.33;60.95;95252.98;1816237;77;21119;-82
2021/11/01 23:59:32;;;;;;;7.75;6.42;;;;;;;11.34;60.83;95261.08;1797562;77;21553;-82
